sensor_id;sensor_type;location;lat;lon;timestamp;P1;durP1;ratioP1;P2;durP2;ratioP2
73266;SDS011;61495;53.400;7.608;2023-04-03T00:00:37;2.97;;;0.82;;
73266;SDS011;61495;53.400;7.608;2023-04-03T00:03:03;3.78;;;1.00;;
73266;SDS011;61495;53.400;7.608;2023-04-03T00:05:28;3.50;;;0.98;;
73266;SDS011;61495;53.400;7.608;2023-04-03T00:07:54;2.20;;;0.93;;
73266;SDS011;61495;53.400;7.608;2023-04-03T00:10:19;4.20;;;1.45;;
73266;SDS011;61495;53.400;7.608;2023-04-03T00:12:45;1.63;;;0.80;;
73266;SDS011;61495;53.400;7.608;2023-04-03T00:15:10;5.10;;;1.02;;
73266;SDS011;61495;53.400;7.608;2023-04-03T00:17:36;1.90;;;0.80;;
73266;SDS011;61495;53.400;7.608;2023-04-03T00:20:02;2.53;;;1.30;;
73266;SDS011;61495;53.400;7.608;2023-04-03T00:22:28;4.78;;;1.20;;
73266;SDS011;61495;53.400;7.608;2023-04-03T00:24:54;5.68;;;1.42;;
73266;SDS011;61495;53.400;7.608;2023-04-03T00:27:20;3.22;;;1.65;;
73266;SDS011;61495;53.400;7.608;2023-04-03T00:29:45;3.70;;;1.05;;
73266;SDS011;61495;53.400;7.608;2023-04-03T00:32:11;3.67;;;0.80;;
73266;SDS011;61495;53.400;7.608;2023-04-03T00:34:36;4.95;;;1.35;;
73266;SDS011;61495;53.400;7.608;2023-04-03T00:37:02;3.53;;;0.93;;
73266;SDS011;61495;53.400;7.608;2023-04-03T00:39:27;2.60;;;1.25;;
73266;SDS011;61495;53.400;7.608;2023-04-03T00:41:53;3.22;;;1.40;;
73266;SDS011;61495;53.400;7.608;2023-04-03T00:44:22;2.22;;;0.90;;
73266;SDS011;61495;53.400;7.608;2023-04-03T00:47:09;3.92;;;1.00;;
73266;SDS011;61495;53.400;7.608;2023-04-03T00:49:37;5.88;;;1.58;;
73266;SDS011;61495;53.400;7.608;2023-04-03T00:52:03;2.47;;;0.95;;
73266;SDS011;61495;53.400;7.608;2023-04-03T00:54:33;3.70;;;1.00;;
73266;SDS011;61495;53.400;7.608;2023-04-03T00:57:01;2.88;;;1.35;;
73266;SDS011;61495;53.400;7.608;2023-04-03T00:59:29;2.75;;;1.63;;
73266;SDS011;61495;53.400;7.608;2023-04-03T01:01:58;2.38;;;1.10;;
73266;SDS011;61495;53.400;7.608;2023-04-03T01:07:02;5.13;;;1.85;;
73266;SDS011;61495;53.400;7.608;2023-04-03T01:09:32;5.38;;;1.23;;
73266;SDS011;61495;53.400;7.608;2023-04-03T01:12:19;5.68;;;1.20;;
73266;SDS011;61495;53.400;7.608;2023-04-03T01:14:50;2.72;;;1.23;;
73266;SDS011;61495;53.400;7.608;2023-04-03T01:17:38;6.40;;;1.52;;
73266;SDS011;61495;53.400;7.608;2023-04-03T01:25:14;4.60;;;1.30;;
73266;SDS011;61495;53.400;7.608;2023-04-03T01:30:05;5.28;;;1.55;;
73266;SDS011;61495;53.400;7.608;2023-04-03T01:32:31;5.80;;;1.48;;
73266;SDS011;61495;53.400;7.608;2023-04-03T01:37:22;5.73;;;1.70;;
73266;SDS011;61495;53.400;7.608;2023-04-03T01:40:04;3.90;;;1.27;;
73266;SDS011;61495;53.400;7.608;2023-04-03T01:42:46;4.38;;;1.25;;
73266;SDS011;61495;53.400;7.608;2023-04-03T01:45:27;7.32;;;1.48;;
73266;SDS011;61495;53.400;7.608;2023-04-03T01:48:00;5.22;;;1.85;;
73266;SDS011;61495;53.400;7.608;2023-04-03T01:50:51;6.47;;;1.60;;
73266;SDS011;61495;53.400;7.608;2023-04-03T01:53:23;4.32;;;1.60;;
73266;SDS011;61495;53.400;7.608;2023-04-03T01:58:14;4.53;;;1.37;;
73266;SDS011;61495;53.400;7.608;2023-04-03T02:03:05;3.47;;;1.40;;
73266;SDS011;61495;53.400;7.608;2023-04-03T02:07:55;4.07;;;1.48;;
73266;SDS011;61495;53.400;7.608;2023-04-03T02:12:46;3.03;;;0.98;;
73266;SDS011;61495;53.400;7.608;2023-04-03T02:17:37;5.07;;;1.40;;
73266;SDS011;61495;53.400;7.608;2023-04-03T02:20:03;5.70;;;1.23;;
73266;SDS011;61495;53.400;7.608;2023-04-03T02:22:29;4.47;;;1.38;;
73266;SDS011;61495;53.400;7.608;2023-04-03T02:27:20;5.07;;;1.47;;
73266;SDS011;61495;53.400;7.608;2023-04-03T02:32:11;5.40;;;1.77;;
73266;SDS011;61495;53.400;7.608;2023-04-03T02:37:01;3.83;;;1.07;;
73266;SDS011;61495;53.400;7.608;2023-04-03T02:41:53;3.50;;;1.60;;
73266;SDS011;61495;53.400;7.608;2023-04-03T02:46:43;3.95;;;1.40;;
73266;SDS011;61495;53.400;7.608;2023-04-03T02:51:34;2.45;;;1.17;;
73266;SDS011;61495;53.400;7.608;2023-04-03T02:56:25;3.70;;;1.13;;
73266;SDS011;61495;53.400;7.608;2023-04-03T02:58:51;3.20;;;1.48;;
73266;SDS011;61495;53.400;7.608;2023-04-03T03:03:42;3.80;;;1.03;;
73266;SDS011;61495;53.400;7.608;2023-04-03T03:08:34;3.38;;;1.23;;
73266;SDS011;61495;53.400;7.608;2023-04-03T03:11:00;3.90;;;1.35;;
73266;SDS011;61495;53.400;7.608;2023-04-03T03:15:51;3.70;;;1.30;;
73266;SDS011;61495;53.400;7.608;2023-04-03T03:20:42;5.17;;;1.40;;
73266;SDS011;61495;53.400;7.608;2023-04-03T03:25:33;3.20;;;1.25;;
73266;SDS011;61495;53.400;7.608;2023-04-03T03:28:02;2.75;;;1.00;;
73266;SDS011;61495;53.400;7.608;2023-04-03T03:32:52;4.13;;;1.30;;
73266;SDS011;61495;53.400;7.608;2023-04-03T03:35:18;6.30;;;1.60;;
73266;SDS011;61495;53.400;7.608;2023-04-03T03:40:08;4.57;;;1.63;;
73266;SDS011;61495;53.400;7.608;2023-04-03T03:42:36;4.47;;;1.33;;
73266;SDS011;61495;53.400;7.608;2023-04-03T03:47:26;3.40;;;1.10;;
73266;SDS011;61495;53.400;7.608;2023-04-03T03:52:17;2.50;;;1.00;;
73266;SDS011;61495;53.400;7.608;2023-04-03T03:54:42;3.60;;;1.30;;
73266;SDS011;61495;53.400;7.608;2023-04-03T03:57:07;6.57;;;1.80;;
73266;SDS011;61495;53.400;7.608;2023-04-03T04:01:58;3.97;;;1.80;;
73266;SDS011;61495;53.400;7.608;2023-04-03T04:06:49;7.63;;;1.50;;
73266;SDS011;61495;53.400;7.608;2023-04-03T04:09:15;5.55;;;1.60;;
73266;SDS011;61495;53.400;7.608;2023-04-03T04:14:06;3.20;;;1.33;;
73266;SDS011;61495;53.400;7.608;2023-04-03T04:18:57;5.25;;;1.70;;
73266;SDS011;61495;53.400;7.608;2023-04-03T04:23:47;3.57;;;1.43;;
73266;SDS011;61495;53.400;7.608;2023-04-03T04:28:38;3.33;;;1.63;;
73266;SDS011;61495;53.400;7.608;2023-04-03T04:33:28;6.30;;;1.60;;
73266;SDS011;61495;53.400;7.608;2023-04-03T04:38:20;5.95;;;2.08;;
73266;SDS011;61495;53.400;7.608;2023-04-03T04:43:12;5.63;;;1.63;;
73266;SDS011;61495;53.400;7.608;2023-04-03T04:45:39;8.15;;;1.52;;
73266;SDS011;61495;53.400;7.608;2023-04-03T04:48:05;4.55;;;2.00;;
73266;SDS011;61495;53.400;7.608;2023-04-03T04:52:55;6.73;;;2.17;;
73266;SDS011;61495;53.400;7.608;2023-04-03T04:57:46;6.53;;;2.40;;
73266;SDS011;61495;53.400;7.608;2023-04-03T05:02:37;6.20;;;1.80;;
73266;SDS011;61495;53.400;7.608;2023-04-03T05:07:28;6.22;;;2.00;;
73266;SDS011;61495;53.400;7.608;2023-04-03T05:09:54;7.20;;;1.80;;
73266;SDS011;61495;53.400;7.608;2023-04-03T05:14:44;4.43;;;2.23;;
73266;SDS011;61495;53.400;7.608;2023-04-03T05:17:10;4.47;;;2.10;;
73266;SDS011;61495;53.400;7.608;2023-04-03T05:22:00;5.32;;;1.98;;
73266;SDS011;61495;53.400;7.608;2023-04-03T05:24:26;5.00;;;2.15;;
73266;SDS011;61495;53.400;7.608;2023-04-03T05:26:51;8.98;;;2.25;;
73266;SDS011;61495;53.400;7.608;2023-04-03T05:31:42;5.77;;;1.73;;
73266;SDS011;61495;53.400;7.608;2023-04-03T05:34:07;5.53;;;2.53;;
73266;SDS011;61495;53.400;7.608;2023-04-03T05:38:57;7.67;;;2.03;;
73266;SDS011;61495;53.400;7.608;2023-04-03T05:43:48;4.82;;;1.98;;
73266;SDS011;61495;53.400;7.608;2023-04-03T05:46:15;5.47;;;2.38;;
73266;SDS011;61495;53.400;7.608;2023-04-03T05:48:43;6.35;;;1.80;;
73266;SDS011;61495;53.400;7.608;2023-04-03T05:56:04;2.93;;;1.57;;
73266;SDS011;61495;53.400;7.608;2023-04-03T06:00:55;5.07;;;1.73;;
73266;SDS011;61495;53.400;7.608;2023-04-03T06:03:20;3.13;;;1.42;;
73266;SDS011;61495;53.400;7.608;2023-04-03T06:08:11;4.27;;;2.17;;
73266;SDS011;61495;53.400;7.608;2023-04-03T06:10:37;7.10;;;1.85;;
73266;SDS011;61495;53.400;7.608;2023-04-03T06:15:28;7.57;;;2.67;;
73266;SDS011;61495;53.400;7.608;2023-04-03T06:20:19;9.13;;;2.70;;
73266;SDS011;61495;53.400;7.608;2023-04-03T06:22:45;6.60;;;2.90;;
73266;SDS011;61495;53.400;7.608;2023-04-03T06:27:37;10.82;;;3.28;;
73266;SDS011;61495;53.400;7.608;2023-04-03T06:32:28;4.40;;;1.90;;
73266;SDS011;61495;53.400;7.608;2023-04-03T06:34:53;7.05;;;2.75;;
73266;SDS011;61495;53.400;7.608;2023-04-03T06:37:20;5.32;;;2.08;;
73266;SDS011;61495;53.400;7.608;2023-04-03T06:39:46;4.32;;;2.15;;
73266;SDS011;61495;53.400;7.608;2023-04-03T06:42:12;3.92;;;1.98;;
73266;SDS011;61495;53.400;7.608;2023-04-03T06:44:38;6.80;;;1.98;;
73266;SDS011;61495;53.400;7.608;2023-04-03T06:47:03;4.07;;;1.65;;
73266;SDS011;61495;53.400;7.608;2023-04-03T06:49:29;7.78;;;1.77;;
73266;SDS011;61495;53.400;7.608;2023-04-03T06:51:55;5.65;;;2.13;;
73266;SDS011;61495;53.400;7.608;2023-04-03T06:54:21;6.70;;;2.00;;
73266;SDS011;61495;53.400;7.608;2023-04-03T06:56:47;6.13;;;1.80;;
73266;SDS011;61495;53.400;7.608;2023-04-03T06:59:12;5.10;;;1.70;;
73266;SDS011;61495;53.400;7.608;2023-04-03T07:01:39;5.80;;;2.15;;
73266;SDS011;61495;53.400;7.608;2023-04-03T07:04:05;3.90;;;1.50;;
73266;SDS011;61495;53.400;7.608;2023-04-03T07:06:31;2.75;;;1.42;;
73266;SDS011;61495;53.400;7.608;2023-04-03T07:08:58;4.07;;;1.27;;
73266;SDS011;61495;53.400;7.608;2023-04-03T07:11:24;4.80;;;1.73;;
73266;SDS011;61495;53.400;7.608;2023-04-03T07:13:50;5.05;;;1.48;;
73266;SDS011;61495;53.400;7.608;2023-04-03T07:16:15;4.75;;;1.48;;
73266;SDS011;61495;53.400;7.608;2023-04-03T07:18:40;4.70;;;1.63;;
73266;SDS011;61495;53.400;7.608;2023-04-03T07:21:06;5.60;;;1.42;;
73266;SDS011;61495;53.400;7.608;2023-04-03T07:23:32;3.38;;;1.17;;
73266;SDS011;61495;53.400;7.608;2023-04-03T07:25:57;2.20;;;0.98;;
73266;SDS011;61495;53.400;7.608;2023-04-03T07:28:23;2.63;;;1.23;;
73266;SDS011;61495;53.400;7.608;2023-04-03T07:30:50;5.15;;;1.77;;
73266;SDS011;61495;53.400;7.608;2023-04-03T07:33:20;4.13;;;1.02;;
73266;SDS011;61495;53.400;7.608;2023-04-03T07:35:47;5.28;;;1.30;;
73266;SDS011;61495;53.400;7.608;2023-04-03T07:38:13;2.95;;;1.27;;
73266;SDS011;61495;53.400;7.608;2023-04-03T07:40:39;4.90;;;1.10;;
73266;SDS011;61495;53.400;7.608;2023-04-03T07:43:05;4.85;;;1.35;;
73266;SDS011;61495;53.400;7.608;2023-04-03T07:45:31;1.77;;;0.90;;
73266;SDS011;61495;53.400;7.608;2023-04-03T07:47:57;3.08;;;1.55;;
73266;SDS011;61495;53.400;7.608;2023-04-03T07:50:22;2.97;;;1.00;;
73266;SDS011;61495;53.400;7.608;2023-04-03T07:52:48;4.93;;;1.05;;
73266;SDS011;61495;53.400;7.608;2023-04-03T07:55:15;3.97;;;1.10;;
73266;SDS011;61495;53.400;7.608;2023-04-03T07:57:41;5.55;;;1.27;;
73266;SDS011;61495;53.400;7.608;2023-04-03T08:00:07;3.10;;;1.00;;
73266;SDS011;61495;53.400;7.608;2023-04-03T08:02:33;1.50;;;0.80;;
73266;SDS011;61495;53.400;7.608;2023-04-03T08:04:59;4.40;;;1.33;;
73266;SDS011;61495;53.400;7.608;2023-04-03T08:07:24;3.08;;;1.02;;
73266;SDS011;61495;53.400;7.608;2023-04-03T08:09:50;2.83;;;0.70;;
73266;SDS011;61495;53.400;7.608;2023-04-03T08:12:15;3.65;;;1.00;;
73266;SDS011;61495;53.400;7.608;2023-04-03T08:14:41;3.70;;;1.05;;
73266;SDS011;61495;53.400;7.608;2023-04-03T08:17:06;2.92;;;0.90;;
73266;SDS011;61495;53.400;7.608;2023-04-03T08:19:36;2.17;;;0.90;;
73266;SDS011;61495;53.400;7.608;2023-04-03T08:22:02;2.40;;;0.88;;
73266;SDS011;61495;53.400;7.608;2023-04-03T08:24:28;2.80;;;1.05;;
73266;SDS011;61495;53.400;7.608;2023-04-03T08:26:54;2.63;;;1.20;;
73266;SDS011;61495;53.400;7.608;2023-04-03T08:29:20;2.63;;;1.08;;
73266;SDS011;61495;53.400;7.608;2023-04-03T08:31:46;4.03;;;1.08;;
73266;SDS011;61495;53.400;7.608;2023-04-03T08:34:11;3.00;;;1.02;;
73266;SDS011;61495;53.400;7.608;2023-04-03T08:36:38;2.83;;;1.10;;
73266;SDS011;61495;53.400;7.608;2023-04-03T08:39:03;2.63;;;0.90;;
73266;SDS011;61495;53.400;7.608;2023-04-03T08:44:02;3.13;;;1.20;;
73266;SDS011;61495;53.400;7.608;2023-04-03T08:46:47;2.22;;;0.95;;
73266;SDS011;61495;53.400;7.608;2023-04-03T08:49:27;2.63;;;1.23;;
73266;SDS011;61495;53.400;7.608;2023-04-03T08:51:57;2.08;;;0.90;;
73266;SDS011;61495;53.400;7.608;2023-04-03T08:54:29;3.60;;;0.80;;
73266;SDS011;61495;53.400;7.608;2023-04-03T08:57:00;3.45;;;1.10;;
73266;SDS011;61495;53.400;7.608;2023-04-03T08:59:29;1.33;;;0.70;;
73266;SDS011;61495;53.400;7.608;2023-04-03T09:02:00;1.45;;;1.10;;
73266;SDS011;61495;53.400;7.608;2023-04-03T09:04:30;3.28;;;0.52;;
73266;SDS011;61495;53.400;7.608;2023-04-03T09:06:58;3.42;;;1.00;;
73266;SDS011;61495;53.400;7.608;2023-04-03T09:09:35;2.00;;;0.82;;
73266;SDS011;61495;53.400;7.608;2023-04-03T09:22:56;1.67;;;0.60;;
73266;SDS011;61495;53.400;7.608;2023-04-03T09:25:25;2.63;;;0.95;;
73266;SDS011;61495;53.400;7.608;2023-04-03T09:27:53;3.45;;;0.90;;
73266;SDS011;61495;53.400;7.608;2023-04-03T09:30:23;1.65;;;0.70;;
73266;SDS011;61495;53.400;7.608;2023-04-03T09:32:53;1.20;;;0.60;;
73266;SDS011;61495;53.400;7.608;2023-04-03T09:37:50;2.65;;;0.85;;
73266;SDS011;61495;53.400;7.608;2023-04-03T09:42:54;1.77;;;0.88;;
73266;SDS011;61495;53.400;7.608;2023-04-03T09:45:25;3.13;;;0.60;;
73266;SDS011;61495;53.400;7.608;2023-04-03T09:50:32;2.40;;;1.02;;
73266;SDS011;61495;53.400;7.608;2023-04-03T09:53:00;2.28;;;1.00;;
73266;SDS011;61495;53.400;7.608;2023-04-03T09:55:30;1.70;;;0.70;;
73266;SDS011;61495;53.400;7.608;2023-04-03T09:58:00;3.10;;;0.70;;
73266;SDS011;61495;53.400;7.608;2023-04-03T10:00:30;2.08;;;0.90;;
73266;SDS011;61495;53.400;7.608;2023-04-03T10:02:59;3.80;;;1.25;;
73266;SDS011;61495;53.400;7.608;2023-04-03T10:05:34;1.33;;;0.77;;
73266;SDS011;61495;53.400;7.608;2023-04-03T10:08:19;1.67;;;1.00;;
73266;SDS011;61495;53.400;7.608;2023-04-03T10:13:57;1.23;;;1.02;;
73266;SDS011;61495;53.400;7.608;2023-04-03T10:16:45;3.55;;;0.95;;
73266;SDS011;61495;53.400;7.608;2023-04-03T10:20:00;1.00;;;0.60;;
73266;SDS011;61495;53.400;7.608;2023-04-03T10:35:53;2.35;;;1.00;;
73266;SDS011;61495;53.400;7.608;2023-04-03T10:38:46;2.40;;;0.93;;
73266;SDS011;61495;53.400;7.608;2023-04-03T10:52:57;1.33;;;0.88;;
73266;SDS011;61495;53.400;7.608;2023-04-03T10:55:32;2.28;;;0.60;;
73266;SDS011;61495;53.400;7.608;2023-04-03T10:57:59;2.33;;;0.70;;
73266;SDS011;61495;53.400;7.608;2023-04-03T11:00:37;2.80;;;1.05;;
73266;SDS011;61495;53.400;7.608;2023-04-03T11:03:05;3.25;;;1.02;;
73266;SDS011;61495;53.400;7.608;2023-04-03T11:05:42;1.45;;;0.80;;
73266;SDS011;61495;53.400;7.608;2023-04-03T11:08:17;2.50;;;0.85;;
73266;SDS011;61495;53.400;7.608;2023-04-03T11:10:51;2.38;;;0.93;;
73266;SDS011;61495;53.400;7.608;2023-04-03T11:13:22;1.77;;;1.08;;
73266;SDS011;61495;53.400;7.608;2023-04-03T11:15:53;3.95;;;1.75;;
73266;SDS011;61495;53.400;7.608;2023-04-03T11:18:25;3.65;;;1.67;;
73266;SDS011;61495;53.400;7.608;2023-04-03T11:20:58;2.28;;;1.00;;
73266;SDS011;61495;53.400;7.608;2023-04-03T11:23:30;2.67;;;1.70;;
73266;SDS011;61495;53.400;7.608;2023-04-03T11:26:10;4.45;;;1.25;;
73266;SDS011;61495;53.400;7.608;2023-04-03T11:28:37;3.00;;;1.15;;
73266;SDS011;61495;53.400;7.608;2023-04-03T11:31:15;2.88;;;1.00;;
73266;SDS011;61495;53.400;7.608;2023-04-03T11:34:00;2.08;;;0.88;;
73266;SDS011;61495;53.400;7.608;2023-04-03T11:36:33;2.85;;;0.98;;
73266;SDS011;61495;53.400;7.608;2023-04-03T11:39:10;1.35;;;0.70;;
73266;SDS011;61495;53.400;7.608;2023-04-03T11:41:45;2.13;;;1.17;;
73266;SDS011;61495;53.400;7.608;2023-04-03T11:47:02;1.85;;;0.90;;
73266;SDS011;61495;53.400;7.608;2023-04-03T11:52:46;3.47;;;1.10;;
73266;SDS011;61495;53.400;7.608;2023-04-03T11:58:02;1.75;;;1.10;;
73266;SDS011;61495;53.400;7.608;2023-04-03T12:13:41;4.35;;;1.23;;
73266;SDS011;61495;53.400;7.608;2023-04-03T12:26:44;3.13;;;1.30;;
73266;SDS011;61495;53.400;7.608;2023-04-03T12:29:23;1.95;;;0.80;;
73266;SDS011;61495;53.400;7.608;2023-04-03T12:40:10;1.88;;;0.65;;
73266;SDS011;61495;53.400;7.608;2023-04-03T12:48:28;3.63;;;1.27;;
73266;SDS011;61495;53.400;7.608;2023-04-03T12:50:55;2.85;;;0.85;;
73266;SDS011;61495;53.400;7.608;2023-04-03T12:53:26;2.58;;;0.70;;
73266;SDS011;61495;53.400;7.608;2023-04-03T12:55:55;2.25;;;0.90;;
73266;SDS011;61495;53.400;7.608;2023-04-03T12:58:22;1.85;;;1.05;;
73266;SDS011;61495;53.400;7.608;2023-04-03T13:01:03;2.10;;;0.98;;
73266;SDS011;61495;53.400;7.608;2023-04-03T13:03:36;2.22;;;1.27;;
73266;SDS011;61495;53.400;7.608;2023-04-03T13:06:05;1.83;;;1.00;;
73266;SDS011;61495;53.400;7.608;2023-04-03T13:08:31;2.10;;;0.93;;
73266;SDS011;61495;53.400;7.608;2023-04-03T13:11:08;2.88;;;0.90;;
73266;SDS011;61495;53.400;7.608;2023-04-03T13:13:36;1.35;;;0.73;;
73266;SDS011;61495;53.400;7.608;2023-04-03T13:16:10;1.52;;;0.70;;
73266;SDS011;61495;53.400;7.608;2023-04-03T13:18:38;2.83;;;0.65;;
73266;SDS011;61495;53.400;7.608;2023-04-03T13:21:05;4.07;;;1.15;;
73266;SDS011;61495;53.400;7.608;2023-04-03T13:23:38;2.35;;;1.02;;
73266;SDS011;61495;53.400;7.608;2023-04-03T13:26:07;1.70;;;1.17;;
73266;SDS011;61495;53.400;7.608;2023-04-03T13:28:34;2.28;;;1.08;;
73266;SDS011;61495;53.400;7.608;2023-04-03T13:31:06;3.15;;;0.93;;
73266;SDS011;61495;53.400;7.608;2023-04-03T13:33:35;1.77;;;0.90;;
73266;SDS011;61495;53.400;7.608;2023-04-03T13:36:22;2.78;;;0.90;;
73266;SDS011;61495;53.400;7.608;2023-04-03T13:39:01;1.92;;;0.70;;
73266;SDS011;61495;53.400;7.608;2023-04-03T13:46:43;1.95;;;0.90;;
73266;SDS011;61495;53.400;7.608;2023-04-03T13:49:22;3.55;;;2.03;;
73266;SDS011;61495;53.400;7.608;2023-04-03T13:52:19;3.17;;;1.50;;
73266;SDS011;61495;53.400;7.608;2023-04-03T13:54:54;3.72;;;1.33;;
73266;SDS011;61495;53.400;7.608;2023-04-03T13:57:23;2.67;;;0.90;;
73266;SDS011;61495;53.400;7.608;2023-04-03T13:59:50;2.47;;;1.10;;
73266;SDS011;61495;53.400;7.608;2023-04-03T14:04:54;2.90;;;1.25;;
73266;SDS011;61495;53.400;7.608;2023-04-03T14:07:24;2.08;;;0.95;;
73266;SDS011;61495;53.400;7.608;2023-04-03T14:09:51;2.45;;;1.25;;
73266;SDS011;61495;53.400;7.608;2023-04-03T14:12:18;3.22;;;1.00;;
73266;SDS011;61495;53.400;7.608;2023-04-03T14:14:45;2.70;;;0.90;;
73266;SDS011;61495;53.400;7.608;2023-04-03T14:17:16;1.75;;;0.75;;
73266;SDS011;61495;53.400;7.608;2023-04-03T14:19:43;3.03;;;0.95;;
73266;SDS011;61495;53.400;7.608;2023-04-03T14:22:26;4.30;;;1.20;;
73266;SDS011;61495;53.400;7.608;2023-04-03T14:24:54;2.05;;;0.90;;
73266;SDS011;61495;53.400;7.608;2023-04-03T14:29:51;2.95;;;1.00;;
73266;SDS011;61495;53.400;7.608;2023-04-03T14:32:18;3.03;;;1.13;;
73266;SDS011;61495;53.400;7.608;2023-04-03T14:34:45;2.80;;;1.05;;
73266;SDS011;61495;53.400;7.608;2023-04-03T14:37:15;1.58;;;0.73;;
73266;SDS011;61495;53.400;7.608;2023-04-03T14:39:43;2.00;;;1.00;;
73266;SDS011;61495;53.400;7.608;2023-04-03T14:42:11;1.75;;;0.77;;
73266;SDS011;61495;53.400;7.608;2023-04-03T14:44:42;3.22;;;1.00;;
73266;SDS011;61495;53.400;7.608;2023-04-03T14:47:10;2.97;;;1.02;;
73266;SDS011;61495;53.400;7.608;2023-04-03T14:49:36;2.33;;;1.08;;
73266;SDS011;61495;53.400;7.608;2023-04-03T14:52:02;1.05;;;0.60;;
73266;SDS011;61495;53.400;7.608;2023-04-03T14:54:27;1.02;;;0.70;;
73266;SDS011;61495;53.400;7.608;2023-04-03T14:56:54;2.30;;;0.80;;
73266;SDS011;61495;53.400;7.608;2023-04-03T14:59:21;1.80;;;0.75;;
73266;SDS011;61495;53.400;7.608;2023-04-03T15:01:47;1.42;;;0.60;;
73266;SDS011;61495;53.400;7.608;2023-04-03T15:04:17;2.40;;;1.08;;
73266;SDS011;61495;53.400;7.608;2023-04-03T15:06:44;3.45;;;1.10;;
73266;SDS011;61495;53.400;7.608;2023-04-03T15:09:22;2.55;;;1.10;;
73266;SDS011;61495;53.400;7.608;2023-04-03T15:11:50;2.85;;;0.70;;
73266;SDS011;61495;53.400;7.608;2023-04-03T15:14:17;2.38;;;1.00;;
73266;SDS011;61495;53.400;7.608;2023-04-03T15:16:43;3.83;;;1.00;;
73266;SDS011;61495;53.400;7.608;2023-04-03T15:19:09;3.17;;;0.80;;
73266;SDS011;61495;53.400;7.608;2023-04-03T15:21:35;2.45;;;0.75;;
73266;SDS011;61495;53.400;7.608;2023-04-03T15:24:01;1.85;;;0.90;;
73266;SDS011;61495;53.400;7.608;2023-04-03T15:26:26;5.32;;;1.48;;
73266;SDS011;61495;53.400;7.608;2023-04-03T15:28:51;1.40;;;0.70;;
73266;SDS011;61495;53.400;7.608;2023-04-03T15:31:17;2.20;;;0.90;;
73266;SDS011;61495;53.400;7.608;2023-04-03T15:33:42;1.65;;;0.80;;
73266;SDS011;61495;53.400;7.608;2023-04-03T15:36:08;2.60;;;0.80;;
73266;SDS011;61495;53.400;7.608;2023-04-03T15:38:33;2.80;;;1.00;;
73266;SDS011;61495;53.400;7.608;2023-04-03T15:41:00;3.55;;;0.93;;
73266;SDS011;61495;53.400;7.608;2023-04-03T15:43:25;1.25;;;0.52;;
73266;SDS011;61495;53.400;7.608;2023-04-03T15:45:52;2.20;;;1.00;;
73266;SDS011;61495;53.400;7.608;2023-04-03T15:48:24;1.23;;;0.70;;
73266;SDS011;61495;53.400;7.608;2023-04-03T15:50:50;2.15;;;0.77;;
73266;SDS011;61495;53.400;7.608;2023-04-03T15:53:15;1.58;;;1.45;;
73266;SDS011;61495;53.400;7.608;2023-04-03T15:55:41;3.33;;;1.20;;
73266;SDS011;61495;53.400;7.608;2023-04-03T15:58:07;1.95;;;0.95;;
73266;SDS011;61495;53.400;7.608;2023-04-03T16:00:33;1.58;;;0.70;;
73266;SDS011;61495;53.400;7.608;2023-04-03T16:03:10;2.63;;;0.80;;
73266;SDS011;61495;53.400;7.608;2023-04-03T16:05:37;2.45;;;0.75;;
73266;SDS011;61495;53.400;7.608;2023-04-03T16:08:03;2.28;;;0.88;;
73266;SDS011;61495;53.400;7.608;2023-04-03T16:10:30;1.60;;;0.73;;
73266;SDS011;61495;53.400;7.608;2023-04-03T16:12:56;2.20;;;0.80;;
73266;SDS011;61495;53.400;7.608;2023-04-03T16:15:21;2.83;;;0.90;;
73266;SDS011;61495;53.400;7.608;2023-04-03T16:17:47;4.43;;;0.90;;
73266;SDS011;61495;53.400;7.608;2023-04-03T16:20:13;1.75;;;0.70;;
73266;SDS011;61495;53.400;7.608;2023-04-03T16:22:39;1.60;;;0.60;;
73266;SDS011;61495;53.400;7.608;2023-04-03T16:25:05;2.53;;;0.98;;
73266;SDS011;61495;53.400;7.608;2023-04-03T16:27:32;2.15;;;1.20;;
73266;SDS011;61495;53.400;7.608;2023-04-03T16:29:58;2.15;;;0.70;;
73266;SDS011;61495;53.400;7.608;2023-04-03T16:32:23;1.88;;;0.80;;
73266;SDS011;61495;53.400;7.608;2023-04-03T16:34:51;3.33;;;1.35;;
73266;SDS011;61495;53.400;7.608;2023-04-03T16:37:16;4.00;;;1.00;;
73266;SDS011;61495;53.400;7.608;2023-04-03T16:39:42;2.28;;;1.00;;
73266;SDS011;61495;53.400;7.608;2023-04-03T16:42:08;3.33;;;1.17;;
73266;SDS011;61495;53.400;7.608;2023-04-03T16:44:34;2.47;;;0.98;;
73266;SDS011;61495;53.400;7.608;2023-04-03T16:47:00;2.85;;;1.13;;
73266;SDS011;61495;53.400;7.608;2023-04-03T16:49:26;2.65;;;0.82;;
73266;SDS011;61495;53.400;7.608;2023-04-03T16:51:57;1.85;;;1.23;;
73266;SDS011;61495;53.400;7.608;2023-04-03T16:54:22;2.88;;;1.40;;
73266;SDS011;61495;53.400;7.608;2023-04-03T16:56:48;4.18;;;1.58;;
73266;SDS011;61495;53.400;7.608;2023-04-03T16:59:13;3.47;;;1.20;;
73266;SDS011;61495;53.400;7.608;2023-04-03T17:01:38;2.67;;;0.90;;
73266;SDS011;61495;53.400;7.608;2023-04-03T17:04:04;3.05;;;0.80;;
73266;SDS011;61495;53.400;7.608;2023-04-03T17:06:31;2.85;;;1.20;;
73266;SDS011;61495;53.400;7.608;2023-04-03T17:08:57;4.10;;;1.90;;
73266;SDS011;61495;53.400;7.608;2023-04-03T17:11:22;6.38;;;1.10;;
73266;SDS011;61495;53.400;7.608;2023-04-03T17:13:48;3.35;;;1.67;;
73266;SDS011;61495;53.400;7.608;2023-04-03T17:16:14;2.97;;;1.17;;
73266;SDS011;61495;53.400;7.608;2023-04-03T17:18:40;3.72;;;1.10;;
73266;SDS011;61495;53.400;7.608;2023-04-03T17:21:06;4.40;;;1.48;;
73266;SDS011;61495;53.400;7.608;2023-04-03T17:23:32;3.42;;;1.23;;
73266;SDS011;61495;53.400;7.608;2023-04-03T17:26:00;3.33;;;1.50;;
73266;SDS011;61495;53.400;7.608;2023-04-03T17:28:28;3.10;;;1.38;;
73266;SDS011;61495;53.400;7.608;2023-04-03T17:30:55;3.58;;;1.13;;
73266;SDS011;61495;53.400;7.608;2023-04-03T17:33:21;2.33;;;1.25;;
73266;SDS011;61495;53.400;7.608;2023-04-03T17:35:47;4.05;;;1.50;;
73266;SDS011;61495;53.400;7.608;2023-04-03T17:38:12;3.15;;;1.25;;
73266;SDS011;61495;53.400;7.608;2023-04-03T17:40:38;3.00;;;1.40;;
73266;SDS011;61495;53.400;7.608;2023-04-03T17:43:03;3.60;;;1.35;;
73266;SDS011;61495;53.400;7.608;2023-04-03T17:45:29;2.65;;;0.90;;
73266;SDS011;61495;53.400;7.608;2023-04-03T17:47:54;3.72;;;1.38;;
73266;SDS011;61495;53.400;7.608;2023-04-03T17:50:20;4.03;;;2.00;;
73266;SDS011;61495;53.400;7.608;2023-04-03T17:52:45;2.83;;;1.10;;
73266;SDS011;61495;53.400;7.608;2023-04-03T17:55:11;4.10;;;1.77;;
73266;SDS011;61495;53.400;7.608;2023-04-03T17:57:37;4.35;;;1.75;;
73266;SDS011;61495;53.400;7.608;2023-04-03T18:00:03;3.97;;;1.60;;
73266;SDS011;61495;53.400;7.608;2023-04-03T18:02:29;3.95;;;1.30;;
73266;SDS011;61495;53.400;7.608;2023-04-03T18:04:56;2.90;;;1.30;;
73266;SDS011;61495;53.400;7.608;2023-04-03T18:07:21;3.38;;;1.50;;
73266;SDS011;61495;53.400;7.608;2023-04-03T18:09:48;5.57;;;1.60;;
73266;SDS011;61495;53.400;7.608;2023-04-03T18:12:14;3.28;;;1.65;;
73266;SDS011;61495;53.400;7.608;2023-04-03T18:14:40;6.75;;;1.60;;
73266;SDS011;61495;53.400;7.608;2023-04-03T18:17:06;5.80;;;2.05;;
73266;SDS011;61495;53.400;7.608;2023-04-03T18:19:31;4.10;;;1.80;;
73266;SDS011;61495;53.400;7.608;2023-04-03T18:21:59;3.88;;;1.92;;
73266;SDS011;61495;53.400;7.608;2023-04-03T18:24:27;4.70;;;1.88;;
73266;SDS011;61495;53.400;7.608;2023-04-03T18:26:54;6.80;;;2.42;;
73266;SDS011;61495;53.400;7.608;2023-04-03T18:29:27;6.78;;;2.53;;
73266;SDS011;61495;53.400;7.608;2023-04-03T18:31:56;5.93;;;2.20;;
73266;SDS011;61495;53.400;7.608;2023-04-03T18:34:22;5.90;;;2.40;;
73266;SDS011;61495;53.400;7.608;2023-04-03T18:36:48;4.25;;;2.42;;
73266;SDS011;61495;53.400;7.608;2023-04-03T18:39:13;5.25;;;2.05;;
73266;SDS011;61495;53.400;7.608;2023-04-03T18:41:39;7.50;;;2.20;;
73266;SDS011;61495;53.400;7.608;2023-04-03T18:44:06;4.60;;;2.28;;
73266;SDS011;61495;53.400;7.608;2023-04-03T18:46:34;4.47;;;1.83;;